Airfield :
LOGIN :

Register | Disclaimer

   EN    FR    IT 

 










Legend :    VFR   Marginal VFR   IFR   Intensive IFR   Very Intensive IFR
Visi :
Ceiling :
>= 8 km
>= 3000ft
5 to 8 km
1000 to 3000 ft
1500m to 5 km
500 to 1000 ft
800 to 1500m
200 to 500 ft
< 800m
< 200 ft
Symbols :   Thunderstorms  Fog  Heavy snow  Heavy precipitations  Wind > 20 kt
SIGMETs :     Misc.  Thunderstorms  Icing  Turbulence  Mountain Waves  Volcanic Ashes







- Airport Elevation : 401 ft
- IATA code : LEQ
- Download approach charts


EGHC - Land's End

CURRENT METAR :
  • 220950Z 28016KT 9999 VCSH SCT014 SCT025 06/04 Q1006

EXPIRED METARs :
  • 220920Z 27011KT 9999 SCT018 SCT025 06/03 Q1006
  • 220850Z 26013KT 9999 SCT018 SCT025 06/03 Q1006
  • 220820Z 27014KT 9999 SCT018 BKN025 06/03 Q1006
  • 220750Z 27016KT 9999 FEW020 06/02 Q1007
  • 220720Z 29016KT 9999 FEW020 06/01 Q1007

TAF TAF EGHC
Valid from the 22 at 09:00 until the 22 at 18:00 UTC


220802Z 2209/2218 29014KT 9999 SCT025
TEMPO 2209/2218 6000 SHRA BKN012
PROB30
TEMPO 2209/2218 30018G28KT 3000 +SHRAGS BKN008 BKN025CB
No reported NOTAMs for that airfield.



MET'MAP, your aeronautical weather chart ! - Copyright ORBIFLY December 2007 - Disclaimer

ORBIFLY MET'MAP TEAM :

Programming & Development : Alexandra Zaïnal
Concept & Development : Baudouin d'Aumeries
Co-Development & Prog : Marc-Olivier Méhu
Technical & hardware support : Manuel Goepfert

Contact : metmap@orbifly.com




SOURCES & CREDITS :

   NOAA